createdAt,value
2019-03-26T00:00:49.934Z,6.57
2019-03-26T00:01:49.969Z,6.56
2019-03-26T00:02:49.907Z,6.57
2019-03-26T00:03:49.890Z,6.63
2019-03-26T00:04:49.883Z,6.54
2019-03-26T00:05:49.871Z,6.57
2019-03-26T00:06:49.880Z,6.54
2019-03-26T00:07:49.885Z,6.54
2019-03-26T00:08:49.839Z,6.54
2019-03-26T00:09:49.827Z,6.59
2019-03-26T00:10:49.820Z,6.56
2019-03-26T00:11:49.806Z,6.51
2019-03-26T00:12:49.804Z,6.64
2019-03-26T00:13:49.811Z,6.52
2019-03-26T00:14:49.771Z,6.59
2019-03-26T00:15:49.760Z,6.52
2019-03-26T00:16:49.749Z,6.54
2019-03-26T00:17:49.749Z,6.63
2019-03-26T00:18:49.750Z,6.59
2019-03-26T00:19:49.739Z,6.54
2019-03-26T00:20:49.704Z,6.54
2019-03-26T00:21:49.692Z,6.60
2019-03-26T00:22:49.751Z,6.60
2019-03-26T00:23:49.671Z,6.62
2019-03-26T00:24:49.675Z,6.62
2019-03-26T00:25:49.666Z,6.62
2019-03-26T00:26:49.639Z,6.54
2019-03-26T00:27:49.626Z,6.52
2019-03-26T00:28:49.621Z,6.51
2019-03-26T00:29:49.617Z,6.52
2019-03-26T00:30:49.602Z,6.63
2019-03-26T00:31:49.584Z,6.67
2019-03-26T00:32:49.609Z,6.60
2019-03-26T00:33:49.564Z,6.64
2019-03-26T00:34:49.550Z,6.69
2019-03-26T00:35:49.557Z,6.63
2019-03-26T00:36:49.528Z,6.64
2019-03-26T00:37:49.519Z,6.63
2019-03-26T00:38:49.579Z,6.67
2019-03-26T00:39:49.498Z,6.69
2019-03-26T00:40:49.480Z,6.70
2019-03-26T00:41:49.510Z,6.69
2019-03-26T00:42:49.463Z,6.64
2019-03-26T00:43:49.453Z,6.66
2019-03-26T00:44:49.470Z,6.64
2019-03-26T00:45:49.428Z,6.67
2019-03-26T00:46:49.431Z,6.59
2019-03-26T00:47:49.405Z,6.62
2019-03-26T00:48:49.394Z,6.60
2019-03-26T00:49:49.408Z,6.66
2019-03-26T00:50:49.415Z,6.64
2019-03-26T00:51:49.365Z,6.64
2019-03-26T00:52:49.358Z,6.64
2019-03-26T00:53:49.341Z,6.66
2019-03-26T00:54:49.329Z,6.60
2019-03-26T00:55:49.344Z,6.63
2019-03-26T00:56:49.332Z,6.70
2019-03-26T00:57:49.295Z,6.56
2019-03-26T00:58:49.291Z,6.54
2019-03-26T00:59:49.273Z,6.56
2019-03-26T01:00:49.262Z,6.54
2019-03-26T01:01:49.263Z,6.51
2019-03-26T01:02:49.264Z,6.52
2019-03-26T01:03:49.229Z,6.59
2019-03-26T01:04:49.223Z,6.56
2019-03-26T01:05:49.206Z,6.60
2019-03-26T01:06:49.210Z,6.62
2019-03-26T01:07:49.184Z,6.62
2019-03-26T01:08:49.208Z,6.60
2019-03-26T01:09:49.160Z,6.59
2019-03-26T01:10:49.150Z,6.52
2019-03-26T01:11:49.145Z,6.60
2019-03-26T01:12:49.177Z,6.54
2019-03-26T01:13:49.122Z,6.54
2019-03-26T01:14:49.170Z,6.57
2019-03-26T01:15:49.099Z,6.62
2019-03-26T01:16:49.087Z,6.63
2019-03-26T01:17:49.086Z,6.51
2019-03-26T01:18:49.074Z,6.60
2019-03-26T01:19:49.055Z,6.63
2019-03-26T01:20:49.091Z,6.52
2019-03-26T01:21:49.031Z,6.59
2019-03-26T01:22:49.021Z,6.52
2019-03-26T01:23:49.007Z,6.52
2019-03-26T01:24:49.054Z,6.57
2019-03-26T01:25:48.988Z,6.52
2019-03-26T01:26:48.999Z,6.62
2019-03-26T01:27:48.966Z,6.67
2019-03-26T01:28:48.950Z,6.63
2019-03-26T01:29:48.942Z,6.67
2019-03-26T01:30:48.955Z,6.67
2019-03-26T01:31:48.924Z,6.62
2019-03-26T01:32:48.911Z,6.48
2019-03-26T01:33:48.920Z,6.51
2019-03-26T01:34:48.884Z,6.54
2019-03-26T01:35:48.876Z,6.52
2019-03-26T01:36:48.880Z,6.62
2019-03-26T01:37:48.852Z,6.62
2019-03-26T01:38:48.843Z,6.57
2019-03-26T01:39:48.863Z,6.63
2019-03-26T01:40:56.372Z,6.57
2019-03-26T01:41:48.824Z,6.60
2019-03-26T01:42:48.798Z,6.62
2019-03-26T01:43:48.786Z,6.56
2019-03-26T01:44:48.778Z,6.56
2019-03-26T01:45:48.771Z,6.51
2019-03-26T01:46:48.755Z,6.62
2019-03-26T01:47:48.759Z,6.52
2019-03-26T01:48:48.740Z,6.63
2019-03-26T01:49:48.742Z,6.56
2019-03-26T01:50:48.728Z,6.56
2019-03-26T01:51:48.709Z,6.59
2019-03-26T01:52:48.705Z,6.57
2019-03-26T01:53:48.683Z,6.49
2019-03-26T01:54:48.663Z,6.52
2019-03-26T01:55:48.668Z,6.54
2019-03-26T01:56:48.659Z,6.54
2019-03-26T01:57:48.638Z,6.59
2019-03-26T01:58:48.683Z,6.62
2019-03-26T01:59:48.609Z,6.63
2019-03-26T02:00:48.615Z,6.62
2019-03-26T02:01:48.602Z,6.69
2019-03-26T02:02:48.580Z,6.66
2019-03-26T02:03:48.572Z,6.62
2019-03-26T02:04:59.336Z,6.60
2019-03-26T02:05:49.562Z,6.56
2019-03-26T02:06:48.538Z,6.52
2019-03-26T02:07:48.543Z,6.56
2019-03-26T02:08:48.508Z,6.57
2019-03-26T02:09:48.494Z,6.56
2019-03-26T02:10:48.495Z,6.54
2019-03-26T02:11:48.478Z,6.57
2019-03-26T02:12:48.856Z,6.64
2019-03-26T02:13:48.471Z,6.63
2019-03-26T02:14:48.454Z,6.52
2019-03-26T02:15:48.464Z,6.52
2019-03-26T02:16:48.446Z,6.54
2019-03-26T02:17:48.481Z,6.60
2019-03-26T02:18:48.402Z,6.60
2019-03-26T02:19:48.391Z,6.60
2019-03-26T02:20:48.378Z,6.56
2019-03-26T02:21:48.377Z,6.66
2019-03-26T02:22:48.415Z,6.72
2019-03-26T02:23:48.353Z,6.63
2019-03-26T02:24:48.337Z,6.70
2019-03-26T02:25:48.325Z,6.66
2019-03-26T02:26:48.311Z,6.74
2019-03-26T02:27:48.304Z,6.70
2019-03-26T02:28:48.306Z,6.64
2019-03-26T02:29:48.277Z,6.69
2019-03-26T02:30:48.273Z,6.63
2019-03-26T02:31:48.266Z,6.74
2019-03-26T02:32:48.245Z,6.63
2019-03-26T02:33:48.252Z,6.64
2019-03-26T02:34:48.225Z,6.64
2019-03-26T02:35:48.214Z,6.56
2019-03-26T02:36:48.203Z,6.60
2019-03-26T02:37:48.194Z,6.66
2019-03-26T02:38:48.198Z,6.56
2019-03-26T02:39:48.197Z,6.63
2019-03-26T02:40:48.252Z,6.57
2019-03-26T02:41:48.150Z,6.60
2019-03-26T02:42:48.135Z,6.56
2019-03-26T02:43:48.144Z,6.56
2019-03-26T02:44:48.119Z,6.57
2019-03-26T02:45:48.118Z,6.62
2019-03-26T02:46:48.091Z,6.56
2019-03-26T02:47:48.077Z,6.49
2019-03-26T02:48:48.075Z,6.57
2019-03-26T02:49:48.069Z,6.51
2019-03-26T02:50:48.051Z,6.56
2019-03-26T02:51:48.036Z,6.52
2019-03-26T02:52:48.029Z,6.59
2019-03-26T02:53:48.017Z,6.63
2019-03-26T02:54:48.025Z,6.54
2019-03-26T02:55:47.987Z,6.59
2019-03-26T02:56:47.978Z,6.54
2019-03-26T02:57:47.965Z,6.60
2019-03-26T02:58:47.964Z,6.59
2019-03-26T02:59:47.953Z,6.57
2019-03-26T03:00:47.963Z,6.57
2019-03-26T03:01:47.935Z,6.60
2019-03-26T03:02:47.918Z,6.56
2019-03-26T03:03:47.907Z,6.51
2019-03-26T03:04:47.904Z,6.60
2019-03-26T03:05:47.893Z,6.66
2019-03-26T03:06:47.876Z,6.60
2019-03-26T03:07:47.858Z,6.60
2019-03-26T03:08:47.864Z,6.51
2019-03-26T03:09:47.841Z,6.57
2019-03-26T03:10:47.823Z,6.54
2019-03-26T03:11:47.824Z,6.62
2019-03-26T03:12:47.799Z,6.63
2019-03-26T03:13:47.798Z,6.66
2019-03-26T03:14:47.785Z,6.54
2019-03-26T03:15:47.787Z,6.60
2019-03-26T03:16:47.758Z,6.54
2019-03-26T03:17:47.746Z,6.62
2019-03-26T03:18:47.738Z,6.59
2019-03-26T03:19:47.725Z,6.51
2019-03-26T03:20:47.715Z,6.57
2019-03-26T03:21:47.717Z,6.54
2019-03-26T03:22:47.703Z,6.48
2019-03-26T03:23:47.682Z,6.51
2019-03-26T03:24:47.684Z,6.59
2019-03-26T03:25:47.670Z,6.49
2019-03-26T03:26:47.676Z,6.49
2019-03-26T03:27:47.654Z,6.44
2019-03-26T03:28:47.639Z,6.51
2019-03-26T03:29:47.637Z,6.41
2019-03-26T03:30:47.633Z,6.41
2019-03-26T03:31:47.598Z,6.42
2019-03-26T03:32:47.611Z,6.39
2019-03-26T03:33:47.578Z,6.46
2019-03-26T03:34:47.564Z,6.39
2019-03-26T03:35:52.480Z,6.44
2019-03-26T03:36:48.540Z,6.48
2019-03-26T03:37:47.540Z,6.51
2019-03-26T03:38:47.540Z,6.38
2019-03-26T03:39:47.501Z,6.42
2019-03-26T03:40:47.570Z,6.51
2019-03-26T03:41:47.481Z,6.45
2019-03-26T03:42:47.468Z,6.38
2019-03-26T03:43:47.498Z,6.45
2019-03-26T03:44:47.451Z,6.42
2019-03-26T03:45:47.447Z,6.39
2019-03-26T03:46:47.447Z,6.42
2019-03-26T03:47:47.421Z,6.41
2019-03-26T03:48:47.403Z,6.39
2019-03-26T03:49:47.405Z,6.57
2019-03-26T03:50:47.378Z,6.52
2019-03-26T03:51:47.376Z,6.48
2019-03-26T03:52:47.370Z,6.56
2019-03-26T03:53:47.364Z,6.63
2019-03-26T03:54:47.347Z,6.57
2019-03-26T03:55:47.343Z,6.56
2019-03-26T03:56:47.314Z,6.51
2019-03-26T03:57:47.309Z,6.57
2019-03-26T03:58:47.302Z,6.49
2019-03-26T03:59:47.303Z,6.49
2019-03-26T04:00:47.317Z,6.56
2019-03-26T04:01:47.266Z,6.45
2019-03-26T04:02:47.249Z,6.46
2019-03-26T04:03:47.242Z,6.42
2019-03-26T04:04:47.234Z,6.41
2019-03-26T04:05:47.240Z,6.44
2019-03-26T04:06:47.230Z,6.41
2019-03-26T04:07:47.195Z,6.44
2019-03-26T04:08:47.192Z,6.42
2019-03-26T04:09:47.171Z,6.41
2019-03-26T04:10:47.166Z,6.44
2019-03-26T04:11:47.148Z,6.42
2019-03-26T04:12:47.148Z,6.46
2019-03-26T04:13:47.129Z,6.51
2019-03-26T04:14:47.120Z,6.46
2019-03-26T04:15:47.104Z,6.41
2019-03-26T04:16:47.103Z,6.46
2019-03-26T04:17:47.111Z,6.52
2019-03-26T04:18:47.077Z,6.49
2019-03-26T04:19:47.064Z,6.38
2019-03-26T04:20:47.059Z,6.48
2019-03-26T04:21:47.063Z,6.45
2019-03-26T04:22:47.033Z,6.38
2019-03-26T04:23:47.033Z,6.42
2019-03-26T04:24:47.006Z,6.41
2019-03-26T04:25:47.003Z,6.44
2019-03-26T04:26:46.988Z,6.36
2019-03-26T04:27:46.976Z,6.42
2019-03-26T04:28:46.988Z,6.46
2019-03-26T04:29:46.954Z,6.41
2019-03-26T04:30:46.957Z,6.48
2019-03-26T04:31:46.926Z,6.49
2019-03-26T04:32:46.930Z,6.42
2019-03-26T04:33:46.907Z,6.45
2019-03-26T04:34:46.909Z,6.41
2019-03-26T04:35:46.891Z,6.51
2019-03-26T04:36:46.877Z,6.44
2019-03-26T04:37:46.862Z,6.45
2019-03-26T04:38:46.850Z,6.42
2019-03-26T04:39:46.857Z,6.39
2019-03-26T04:40:46.833Z,6.39
2019-03-26T04:41:46.822Z,6.41
2019-03-26T04:42:46.816Z,6.42
2019-03-26T04:43:46.800Z,6.44
2019-03-26T04:44:46.782Z,6.38
2019-03-26T04:45:46.785Z,6.39
2019-03-26T04:46:46.782Z,6.44
2019-03-26T04:47:46.758Z,6.39
2019-03-26T04:48:46.759Z,6.41
2019-03-26T04:49:46.729Z,6.44
2019-03-26T04:50:46.717Z,6.42
2019-03-26T04:51:46.733Z,6.38
2019-03-26T04:52:46.691Z,6.44
2019-03-26T04:53:46.685Z,6.39
2019-03-26T04:54:46.692Z,6.44
2019-03-26T04:55:46.677Z,6.39
2019-03-26T04:56:46.652Z,6.46
2019-03-26T04:57:46.651Z,6.41
2019-03-26T04:58:46.629Z,6.42
2019-03-26T04:59:46.623Z,6.46
2019-03-26T05:00:46.618Z,6.45
2019-03-26T05:01:46.596Z,6.42
2019-03-26T05:02:46.588Z,6.44
2019-03-26T05:03:46.579Z,6.41
2019-03-26T05:04:46.570Z,6.45
2019-03-26T05:05:46.572Z,6.44
2019-03-26T05:06:46.544Z,6.42
2019-03-26T05:07:46.532Z,6.42
2019-03-26T05:08:46.526Z,6.36
2019-03-26T05:09:46.505Z,6.41
2019-03-26T05:10:49.099Z,6.44
2019-03-26T05:11:46.507Z,6.44
2019-03-26T05:12:46.483Z,6.36
2019-03-26T05:13:46.463Z,6.51
2019-03-26T05:14:46.450Z,6.45
2019-03-26T05:15:46.448Z,6.42
2019-03-26T05:16:46.430Z,6.36
2019-03-26T05:17:46.434Z,6.39
2019-03-26T05:18:46.415Z,6.39
2019-03-26T05:19:46.413Z,6.36
2019-03-26T05:20:46.391Z,6.38
2019-03-26T05:21:46.380Z,6.38
2019-03-26T05:22:46.371Z,6.35
2019-03-26T05:23:46.362Z,6.42
2019-03-26T05:24:46.355Z,6.44
2019-03-26T05:25:46.338Z,6.38
2019-03-26T05:26:46.322Z,6.36
2019-03-26T05:27:46.305Z,6.33
2019-03-26T05:28:46.293Z,6.33
2019-03-26T05:29:46.301Z,6.44
2019-03-26T05:30:46.277Z,6.41
2019-03-26T05:31:46.264Z,6.38
2019-03-26T05:32:46.254Z,6.39
2019-03-26T05:33:46.242Z,6.42
2019-03-26T05:34:46.248Z,6.39
2019-03-26T05:35:46.225Z,6.45
2019-03-26T05:36:51.707Z,6.36
2019-03-26T05:37:47.197Z,6.42
2019-03-26T05:38:46.186Z,6.44
2019-03-26T05:39:46.172Z,6.44
2019-03-26T05:40:46.175Z,6.39
2019-03-26T05:41:46.152Z,6.39
2019-03-26T05:42:46.136Z,6.44
2019-03-26T05:43:46.125Z,6.41
2019-03-26T05:44:46.122Z,6.41
2019-03-26T05:45:46.123Z,6.48
2019-03-26T05:46:46.096Z,6.52
2019-03-26T05:47:46.159Z,6.52
2019-03-26T05:48:46.071Z,6.52
2019-03-26T05:49:46.090Z,6.51
2019-03-26T05:50:46.058Z,6.44
2019-03-26T05:51:46.052Z,6.38
2019-03-26T05:52:46.033Z,6.38
2019-03-26T05:53:46.023Z,6.44
2019-03-26T05:54:46.008Z,6.46
2019-03-26T05:55:46.023Z,6.46
2019-03-26T05:56:46.006Z,6.46
2019-03-26T05:57:45.983Z,6.36
2019-03-26T05:58:45.969Z,6.41
2019-03-26T05:59:45.954Z,6.44
2019-03-26T06:00:45.945Z,6.48
2019-03-26T06:01:45.928Z,6.41
2019-03-26T06:02:45.941Z,6.44
2019-03-26T06:03:45.909Z,6.30
2019-03-26T06:04:45.901Z,6.31
2019-03-26T06:05:45.890Z,6.36
2019-03-26T06:06:45.878Z,6.38
2019-03-26T06:07:45.869Z,6.35
2019-03-26T06:08:45.944Z,6.30
2019-03-26T06:09:45.842Z,6.38
2019-03-26T06:10:45.831Z,6.33
2019-03-26T06:11:45.816Z,6.33
2019-03-26T06:12:45.805Z,6.36
2019-03-26T06:13:45.801Z,6.33
2019-03-26T06:14:45.796Z,6.35
2019-03-26T06:15:45.776Z,6.33
2019-03-26T06:16:45.762Z,6.31
2019-03-26T06:17:45.752Z,6.33
2019-03-26T06:18:45.745Z,6.27
2019-03-26T06:19:45.759Z,6.31
2019-03-26T06:20:45.718Z,6.28
2019-03-26T06:21:45.705Z,6.24
2019-03-26T06:22:45.711Z,6.27
2019-03-26T06:23:45.686Z,6.35
2019-03-26T06:24:45.678Z,6.30
2019-03-26T06:25:45.706Z,6.31
2019-03-26T06:26:45.677Z,6.33
2019-03-26T06:27:45.645Z,6.30
2019-03-26T06:28:45.628Z,6.38
2019-03-26T06:29:45.620Z,6.35
2019-03-26T06:30:45.643Z,6.35
2019-03-26T06:31:45.600Z,6.35
2019-03-26T06:32:45.620Z,6.36
2019-03-26T06:33:45.576Z,6.41
2019-03-26T06:34:45.568Z,6.42
2019-03-26T06:35:45.563Z,6.46
2019-03-26T06:36:45.567Z,6.42
2019-03-26T06:37:45.529Z,6.39
2019-03-26T06:38:45.563Z,6.56
2019-03-26T06:39:45.510Z,6.54
2019-03-26T06:40:45.496Z,6.60
2019-03-26T06:41:45.494Z,6.74
2019-03-26T06:42:45.478Z,6.69
2019-03-26T06:43:45.468Z,6.69
2019-03-26T06:44:45.473Z,6.77
2019-03-26T06:45:45.440Z,6.67
2019-03-26T06:46:45.431Z,6.72
2019-03-26T06:47:45.445Z,6.70
2019-03-26T06:48:45.411Z,6.75
2019-03-26T06:49:45.399Z,6.81
2019-03-26T06:50:45.394Z,6.88
2019-03-26T06:51:45.375Z,6.72
2019-03-26T06:52:45.368Z,6.74
2019-03-26T06:53:45.375Z,6.72
2019-03-26T06:54:45.341Z,6.70
2019-03-26T06:55:45.330Z,6.72
2019-03-26T06:56:45.329Z,6.66
2019-03-26T06:57:45.320Z,6.69
2019-03-26T06:58:45.312Z,6.63
2019-03-26T06:59:45.302Z,6.78
2019-03-26T07:00:45.283Z,6.74
2019-03-26T07:01:45.266Z,6.67
2019-03-26T07:02:45.258Z,6.69
2019-03-26T07:03:45.252Z,6.69
2019-03-26T07:04:45.244Z,6.67
2019-03-26T07:05:45.220Z,6.74
2019-03-26T07:06:45.210Z,6.67
2019-03-26T07:07:45.196Z,6.75
2019-03-26T07:08:45.192Z,6.66
2019-03-26T07:09:45.197Z,6.78
2019-03-26T07:10:45.167Z,6.70
2019-03-26T07:11:45.156Z,6.72
2019-03-26T07:12:45.150Z,6.67
2019-03-26T07:13:45.134Z,6.74
2019-03-26T07:14:45.130Z,6.77
2019-03-26T07:15:45.123Z,6.70
2019-03-26T07:16:45.104Z,6.75
2019-03-26T07:17:45.101Z,6.67
2019-03-26T07:18:45.082Z,6.69
2019-03-26T07:19:45.106Z,6.70
2019-03-26T07:20:45.098Z,6.72
2019-03-26T07:21:49.827Z,6.75
2019-03-26T07:22:46.032Z,6.72
2019-03-26T07:23:45.026Z,6.79
2019-03-26T07:24:45.009Z,6.88
2019-03-26T07:25:45.021Z,6.82
2019-03-26T07:26:45.039Z,6.92
2019-03-26T07:27:44.982Z,6.89
2019-03-26T07:28:44.968Z,6.82
2019-03-26T07:29:44.954Z,6.96
2019-03-26T07:30:44.965Z,7.05
2019-03-26T07:31:44.938Z,7.21
2019-03-26T07:32:45.004Z,7.15
2019-03-26T07:33:44.910Z,7.14
2019-03-26T07:34:44.900Z,7.21
2019-03-26T07:35:44.894Z,7.15
2019-03-26T07:36:44.876Z,7.24
2019-03-26T07:37:45.896Z,7.35
2019-03-26T07:38:44.894Z,7.29
2019-03-26T07:39:44.846Z,7.33
2019-03-26T07:40:44.841Z,7.36
2019-03-26T07:41:52.425Z,7.36
2019-03-26T07:42:44.811Z,7.35
2019-03-26T07:43:44.799Z,7.38
2019-03-26T07:44:45.570Z,7.32
2019-03-26T07:45:44.782Z,7.32
2019-03-26T07:46:44.773Z,7.38
2019-03-26T07:47:44.764Z,7.25
2019-03-26T07:48:44.748Z,7.29
2019-03-26T07:49:44.753Z,7.36
2019-03-26T07:50:44.750Z,7.33
2019-03-26T07:51:44.728Z,7.32
2019-03-26T07:52:44.708Z,7.36
2019-03-26T07:53:44.692Z,7.33
2019-03-26T07:54:44.705Z,7.35
2019-03-26T07:55:44.686Z,7.32
2019-03-26T07:56:44.659Z,7.38
2019-03-26T07:57:44.646Z,7.35
2019-03-26T07:58:44.638Z,7.43
2019-03-26T07:59:44.630Z,7.48
2019-03-26T08:00:44.654Z,7.45
2019-03-26T08:01:44.617Z,7.45
2019-03-26T08:02:44.611Z,7.43
2019-03-26T08:03:44.583Z,7.35
2019-03-26T08:04:44.571Z,7.32
2019-03-26T08:05:44.561Z,7.38
2019-03-26T08:06:44.552Z,7.32
2019-03-26T08:07:57.534Z,7.29
2019-03-26T08:08:45.541Z,7.31
2019-03-26T08:09:44.516Z,7.28
2019-03-26T08:10:44.509Z,7.28
2019-03-26T08:11:44.507Z,7.38
2019-03-26T08:12:44.494Z,7.47
2019-03-26T08:13:44.527Z,7.47
2019-03-26T08:14:44.489Z,7.61
2019-03-26T08:15:44.454Z,7.54
2019-03-26T08:16:44.467Z,7.48
2019-03-26T08:17:45.485Z,7.48
2019-03-26T08:18:44.423Z,7.40
2019-03-26T08:19:44.457Z,7.31
2019-03-26T08:20:44.408Z,7.35
2019-03-26T08:21:44.384Z,7.21
2019-03-26T08:22:44.377Z,7.28
2019-03-26T08:23:44.394Z,7.15
2019-03-26T08:24:44.399Z,7.17
2019-03-26T08:25:44.347Z,7.23
2019-03-26T08:26:44.377Z,7.11
2019-03-26T08:27:44.323Z,7.14
2019-03-26T08:28:44.308Z,7.15
2019-03-26T08:29:44.305Z,7.17
2019-03-26T08:30:44.341Z,7.23
2019-03-26T08:31:44.283Z,7.35
2019-03-26T08:32:44.282Z,7.33
2019-03-26T08:33:44.257Z,7.31
2019-03-26T08:34:46.581Z,7.35
2019-03-26T08:35:44.269Z,7.32
2019-03-26T08:36:44.223Z,7.45
2019-03-26T08:37:44.223Z,7.36
2019-03-26T08:38:44.234Z,7.36
2019-03-26T08:39:44.190Z,7.40
2019-03-26T08:40:44.179Z,7.38
2019-03-26T08:41:44.189Z,7.42
2019-03-26T08:42:44.159Z,7.38
2019-03-26T08:43:44.144Z,7.33
2019-03-26T08:44:44.138Z,7.47
2019-03-26T08:45:44.145Z,7.53
2019-03-26T08:46:46.298Z,7.60
2019-03-26T08:47:44.160Z,7.63
2019-03-26T08:48:44.101Z,7.69
2019-03-26T08:49:44.079Z,7.70
2019-03-26T08:50:44.112Z,7.80
2019-03-26T08:51:44.056Z,7.79
2019-03-26T08:52:44.042Z,7.77
2019-03-26T08:53:44.075Z,7.87
2019-03-26T08:54:44.065Z,7.95
2019-03-26T08:55:44.062Z,7.97
2019-03-26T08:56:44.011Z,7.98
2019-03-26T08:57:44.021Z,7.94
2019-03-26T08:58:43.981Z,7.85
2019-03-26T08:59:44.000Z,7.88
2019-03-26T09:00:43.978Z,7.85
2019-03-26T09:01:43.948Z,7.93
2019-03-26T09:02:43.937Z,7.97
2019-03-26T09:03:43.924Z,7.97
2019-03-26T09:04:43.933Z,7.97
2019-03-26T09:05:43.905Z,7.97
2019-03-26T09:06:43.894Z,8.05
2019-03-26T09:07:43.897Z,8.05
2019-03-26T09:08:43.870Z,8.09
2019-03-26T09:09:43.863Z,8.12
2019-03-26T09:10:51.732Z,8.10
2019-03-26T09:11:44.863Z,8.16
2019-03-26T09:12:43.835Z,8.28
2019-03-26T09:13:43.813Z,8.19
2019-03-26T09:14:43.817Z,8.27
2019-03-26T09:15:43.810Z,8.36
2019-03-26T09:16:43.816Z,8.26
2019-03-26T09:17:44.670Z,8.19
2019-03-26T09:18:43.763Z,8.19
2019-03-26T09:19:43.750Z,8.20
2019-03-26T09:20:43.737Z,8.23
2019-03-26T09:21:43.723Z,8.16
2019-03-26T09:22:43.733Z,8.18
2019-03-26T09:23:43.699Z,8.16
2019-03-26T09:24:43.694Z,8.13
2019-03-26T09:25:43.683Z,8.23
2019-03-26T09:26:43.712Z,8.24
2019-03-26T09:27:43.665Z,8.31
2019-03-26T09:28:43.650Z,8.33
2019-03-26T09:29:43.664Z,8.37
2019-03-26T09:30:43.631Z,8.36
2019-03-26T09:31:43.625Z,8.36
2019-03-26T09:32:43.627Z,8.33
2019-03-26T09:33:43.608Z,8.48
2019-03-26T09:34:43.592Z,8.56
2019-03-26T09:35:43.571Z,8.53
2019-03-26T09:36:43.560Z,8.63
2019-03-26T09:37:43.569Z,8.63
2019-03-26T09:38:43.545Z,8.52
2019-03-26T09:39:43.540Z,8.61
2019-03-26T09:40:43.513Z,8.66
2019-03-26T09:41:43.510Z,8.64
2019-03-26T09:42:43.495Z,8.58
2019-03-26T09:43:43.573Z,8.55
2019-03-26T09:44:43.553Z,8.36
2019-03-26T09:45:43.464Z,8.37
2019-03-26T09:46:43.452Z,8.42
2019-03-26T09:47:43.457Z,8.45
2019-03-26T09:48:43.443Z,8.42
2019-03-26T09:49:43.436Z,8.48
2019-03-26T09:50:43.411Z,8.48
2019-03-26T09:51:43.426Z,8.53
2019-03-26T09:52:43.385Z,8.66
2019-03-26T09:53:43.387Z,8.55
2019-03-26T09:54:43.370Z,8.69
2019-03-26T09:55:43.382Z,8.74
2019-03-26T09:56:43.338Z,8.74
2019-03-26T09:57:43.335Z,8.84
2019-03-26T09:58:43.321Z,8.81
2019-03-26T09:59:43.311Z,8.92
2019-03-26T10:00:43.501Z,8.91
2019-03-26T10:01:43.324Z,8.88
2019-03-26T10:02:43.691Z,8.84
2019-03-26T10:03:43.273Z,8.85
2019-03-26T10:04:43.257Z,8.79
2019-03-26T10:05:43.241Z,8.85
2019-03-26T10:06:43.266Z,8.97
2019-03-26T10:07:43.255Z,8.89
2019-03-26T10:08:52.328Z,9.02
2019-03-26T10:09:44.197Z,9.06
2019-03-26T10:10:43.189Z,9.02
2019-03-26T10:11:43.181Z,9.04
2019-03-26T10:12:43.179Z,8.97
2019-03-26T10:13:43.161Z,8.92
2019-03-26T10:14:43.151Z,8.85
2019-03-26T10:15:43.158Z,8.97
2019-03-26T10:16:43.134Z,8.88
2019-03-26T10:17:43.150Z,8.91
2019-03-26T10:18:43.119Z,8.88
2019-03-26T10:19:43.087Z,8.94
2019-03-26T10:20:43.083Z,9.00
2019-03-26T10:21:43.096Z,8.84
2019-03-26T10:22:43.059Z,8.87
2019-03-26T10:23:43.061Z,8.94
2019-03-26T10:24:43.042Z,8.85
2019-03-26T10:25:43.039Z,8.82
2019-03-26T10:26:43.016Z,8.95
2019-03-26T10:27:43.060Z,8.89
2019-03-26T10:28:43.011Z,8.78
2019-03-26T10:29:43.002Z,8.79
2019-03-26T10:30:42.967Z,8.79
2019-03-26T10:31:42.970Z,8.82
2019-03-26T10:32:42.970Z,8.73
2019-03-26T10:33:42.945Z,8.66
2019-03-26T10:34:42.945Z,8.69
2019-03-26T10:35:42.954Z,8.63
2019-03-26T10:36:42.905Z,8.69
2019-03-26T10:37:42.902Z,8.67
2019-03-26T10:38:42.912Z,8.63
2019-03-26T10:39:42.872Z,8.67
2019-03-26T10:40:42.889Z,8.70
2019-03-26T10:41:42.846Z,8.70
2019-03-26T10:42:42.839Z,8.63
2019-03-26T10:43:42.825Z,8.71
2019-03-26T10:44:42.818Z,8.76
2019-03-26T10:45:42.820Z,8.79
2019-03-26T10:46:44.610Z,8.67
2019-03-26T10:47:42.785Z,8.63
2019-03-26T10:48:42.799Z,8.63
2019-03-26T10:49:42.763Z,8.71
2019-03-26T10:50:42.766Z,8.69
2019-03-26T10:51:42.760Z,8.74
2019-03-26T10:52:42.741Z,8.70
2019-03-26T10:53:42.725Z,8.63
2019-03-26T10:54:42.705Z,8.46
2019-03-26T10:55:42.702Z,8.41
2019-03-26T10:56:42.724Z,8.41
2019-03-26T10:57:42.678Z,8.38
2019-03-26T10:58:42.707Z,8.28
2019-03-26T10:59:42.673Z,8.28
2019-03-26T11:00:42.639Z,8.10
2019-03-26T11:01:42.627Z,8.20
2019-03-26T11:02:42.627Z,8.16
2019-03-26T11:03:42.605Z,8.23
2019-03-26T11:04:42.595Z,8.19
2019-03-26T11:05:42.614Z,8.26
2019-03-26T11:06:42.598Z,8.30
2019-03-26T11:07:42.963Z,8.33
2019-03-26T11:08:45.071Z,8.26
2019-03-26T11:09:42.548Z,8.28
2019-03-26T11:10:42.552Z,8.24
2019-03-26T11:11:42.520Z,8.24
2019-03-26T11:12:42.509Z,8.16
2019-03-26T11:13:42.496Z,8.20
2019-03-26T11:14:42.494Z,8.24
2019-03-26T11:15:42.481Z,8.15
2019-03-26T11:16:42.492Z,8.23
2019-03-26T11:17:42.453Z,8.34
2019-03-26T11:18:42.442Z,8.41
2019-03-26T11:19:42.428Z,8.41
2019-03-26T11:20:42.420Z,8.33
2019-03-26T11:21:42.435Z,8.31
2019-03-26T11:22:42.407Z,8.31
2019-03-26T11:23:42.384Z,8.26
2019-03-26T11:24:42.377Z,8.31
2019-03-26T11:25:42.374Z,8.33
2019-03-26T11:26:42.354Z,8.41
2019-03-26T11:27:42.368Z,8.42
2019-03-26T11:28:42.334Z,8.46
2019-03-26T11:29:42.326Z,8.49
2019-03-26T11:30:42.307Z,8.44
2019-03-26T11:31:42.297Z,8.42
2019-03-26T11:32:42.311Z,8.44
2019-03-26T11:33:42.277Z,8.41
2019-03-26T11:34:42.273Z,8.45
2019-03-26T11:35:42.262Z,8.46
2019-03-26T11:36:42.241Z,8.33
2019-03-26T11:37:42.230Z,8.30
2019-03-26T11:38:42.232Z,8.31
2019-03-26T11:39:42.209Z,8.28
2019-03-26T11:40:42.197Z,8.19
2019-03-26T11:41:42.192Z,8.19
2019-03-26T11:42:42.199Z,8.27
2019-03-26T11:43:42.188Z,8.18
2019-03-26T11:44:42.155Z,8.26
2019-03-26T11:45:42.206Z,8.23
2019-03-26T11:46:42.141Z,8.19
2019-03-26T11:47:42.124Z,8.27
2019-03-26T11:48:42.109Z,8.37
2019-03-26T11:49:42.123Z,8.38
2019-03-26T11:50:42.097Z,8.42
2019-03-26T11:51:42.081Z,8.38
2019-03-26T11:52:42.071Z,8.45
2019-03-26T11:53:42.055Z,8.42
2019-03-26T11:54:42.051Z,8.44
2019-03-26T11:55:42.051Z,8.58
2019-03-26T11:56:42.021Z,8.56
2019-03-26T11:57:42.018Z,8.56
2019-03-26T11:58:42.002Z,8.55
2019-03-26T11:59:41.990Z,8.56
2019-03-26T12:00:41.977Z,8.61
2019-03-26T12:01:41.988Z,8.66
2019-03-26T12:02:41.959Z,8.67
2019-03-26T12:03:41.951Z,8.67
2019-03-26T12:04:41.990Z,8.67
2019-03-26T12:05:41.933Z,8.64
2019-03-26T12:06:41.947Z,8.67
2019-03-26T12:07:43.002Z,8.70
2019-03-26T12:08:41.892Z,8.64
2019-03-26T12:09:46.669Z,8.55
2019-03-26T12:10:42.874Z,8.69
2019-03-26T12:11:41.943Z,8.63
2019-03-26T12:12:41.931Z,8.69
2019-03-26T12:13:41.845Z,8.67
2019-03-26T12:14:41.827Z,8.73
2019-03-26T12:15:41.825Z,8.64
2019-03-26T12:16:41.813Z,8.66
2019-03-26T12:17:41.816Z,8.60
2019-03-26T12:18:41.810Z,8.74
2019-03-26T12:19:41.776Z,8.67
2019-03-26T12:20:41.760Z,8.63
2019-03-26T12:21:41.747Z,8.69
2019-03-26T12:22:41.746Z,8.64
2019-03-26T12:23:41.729Z,8.64
2019-03-26T12:24:41.740Z,8.70
2019-03-26T12:25:41.716Z,8.66
2019-03-26T12:26:41.693Z,8.64
2019-03-26T12:27:41.686Z,8.64
2019-03-26T12:28:41.671Z,8.64
2019-03-26T12:29:41.663Z,8.67
2019-03-26T12:30:41.667Z,8.74
2019-03-26T12:31:41.666Z,8.67
2019-03-26T12:32:41.649Z,8.64
2019-03-26T12:33:41.622Z,8.52
2019-03-26T12:34:41.604Z,8.60
2019-03-26T12:35:41.608Z,8.51
2019-03-26T12:36:41.594Z,8.44
2019-03-26T12:37:41.578Z,8.44
2019-03-26T12:38:41.579Z,8.38
2019-03-26T12:39:44.088Z,8.36
2019-03-26T12:40:41.540Z,8.27
2019-03-26T12:41:41.529Z,8.24
2019-03-26T12:42:41.541Z,8.20
2019-03-26T12:43:41.504Z,8.27
2019-03-26T12:44:41.512Z,8.20
2019-03-26T12:45:41.482Z,8.30
2019-03-26T12:46:41.476Z,8.27
2019-03-26T12:47:41.467Z,8.24
2019-03-26T12:48:41.466Z,8.31
2019-03-26T12:49:41.456Z,8.37
2019-03-26T12:50:41.427Z,8.27
2019-03-26T12:51:41.417Z,8.36
2019-03-26T12:52:41.411Z,8.36
2019-03-26T12:53:41.397Z,8.38
2019-03-26T12:54:41.401Z,8.36
2019-03-26T12:55:41.385Z,8.34
2019-03-26T12:56:41.361Z,8.44
2019-03-26T12:57:41.350Z,8.45
2019-03-26T12:58:41.343Z,8.46
2019-03-26T12:59:41.331Z,8.55
2019-03-26T13:00:41.343Z,8.55
2019-03-26T13:01:41.319Z,8.58
2019-03-26T13:02:41.300Z,8.69
2019-03-26T13:03:41.286Z,8.64
2019-03-26T13:04:41.275Z,8.66
2019-03-26T13:05:41.269Z,8.78
2019-03-26T13:06:41.268Z,8.78
2019-03-26T13:07:41.241Z,8.76
2019-03-26T13:08:41.244Z,8.74
2019-03-26T13:09:42.016Z,8.74
2019-03-26T13:10:52.922Z,8.73
2019-03-26T13:11:42.210Z,8.79
2019-03-26T13:12:41.200Z,8.84
2019-03-26T13:13:41.184Z,8.67
2019-03-26T13:14:41.184Z,8.71
2019-03-26T13:15:41.153Z,8.67
2019-03-26T13:16:41.143Z,8.71
2019-03-26T13:17:41.143Z,8.76
2019-03-26T13:18:41.122Z,8.78